Time;durP1;ratioP1;P1;durP2;ratioP2;P2;SDS_P1;SDS_P2;PMS_P1;PMS_P2;Temp;Humidity;BMP_temperature;BMP_pressure;BME280_temperature;BME280_humidity;BME280_pressure;Samples;Min_cycle;Max_cycle;Signal;HPM_P1;HPM_P2
2023/09/02 00:00:08;;;;;;;22.67;16.27;;;15.30;99.90;;;;;;4990839;28;20042;-68
2023/09/02 00:02:34;;;;;;;19.88;15.32;;;15.20;99.90;;;;;;4991974;28;20052;-67
2023/09/02 00:05:00;;;;;;;24.13;17.17;;;15.20;99.90;;;;;;5000620;28;20050;-68
2023/09/02 00:07:25;;;;;;;24.67;16.98;;;15.20;99.90;;;;;;5010356;28;20045;-68
2023/09/02 00:09:51;;;;;;;23.33;16.30;;;15.20;99.90;;;;;;5013625;28;20038;-67
2023/09/02 00:12:16;;;;;;;19.95;14.90;;;15.20;99.90;;;;;;5003042;28;20042;-68
2023/09/02 00:14:42;;;;;;;20.17;16.02;;;15.20;99.90;;;;;;4997356;28;20038;-67
2023/09/02 00:17:07;;;;;;;24.00;16.48;;;15.20;99.90;;;;;;5002619;28;20053;-67
2023/09/02 00:19:33;;;;;;;22.65;16.55;;;15.10;99.90;;;;;;4999502;28;20038;-66
2023/09/02 00:21:59;;;;;;;28.13;18.02;;;15.20;99.90;;;;;;5005484;28;20447;-66
2023/09/02 00:24:24;;;;;;;25.92;17.90;;;15.10;99.90;;;;;;5012442;28;20044;-66
2023/09/02 00:26:50;;;;;;;24.83;17.75;;;15.10;99.90;;;;;;4994978;28;20073;-68
2023/09/02 00:29:15;;;;;;;25.95;18.02;;;15.10;99.90;;;;;;4998401;28;20077;-66
2023/09/02 00:31:41;;;;;;;23.60;17.25;;;15.10;99.90;;;;;;5011880;28;20034;-66
2023/09/02 00:34:06;;;;;;;23.15;17.33;;;15.20;99.90;;;;;;5012217;28;20030;-68
2023/09/02 00:36:32;;;;;;;22.00;16.50;;;15.20;99.90;;;;;;5008404;28;20038;-68
2023/09/02 00:38:58;;;;;;;22.48;16.30;;;15.10;99.90;;;;;;5003666;28;20061;-67
2023/09/02 00:41:41;;;;;;;21.20;14.43;;;15.10;99.90;;;;;;5012031;28;20418;-67
2023/09/02 00:44:06;;;;;;;23.52;16.33;;;15.10;99.90;;;;;;5012802;28;20044;-67
2023/09/02 00:46:32;;;;;;;25.75;18.00;;;15.10;99.90;;;;;;4986221;28;20128;-67
2023/09/02 00:48:57;;;;;;;32.53;19.10;;;15.10;99.90;;;;;;5011243;28;20042;-67
2023/09/02 00:51:24;;;;;;;24.42;17.75;;;15.10;99.90;;;;;;5011949;28;20121;-67
2023/09/02 00:53:50;;;;;;;24.92;18.52;;;15.20;99.90;;;;;;4998873;28;20489;-66
2023/09/02 00:56:16;;;;;;;27.98;19.15;;;15.20;99.90;;;;;;5001662;28;20065;-66
2023/09/02 00:58:43;;;;;;;23.73;17.58;;;15.20;99.90;;;;;;5011684;28;20044;-65
2023/09/02 01:01:10;;;;;;;25.52;18.83;;;15.20;99.90;;;;;;5010208;28;20050;-67
2023/09/02 01:03:36;;;;;;;27.05;18.35;;;15.20;99.90;;;;;;4982522;28;20054;-67
2023/09/02 01:06:03;;;;;;;33.33;20.40;;;15.20;99.90;;;;;;5010168;28;20412;-67
2023/09/02 01:08:30;;;;;;;29.25;19.73;;;15.20;99.90;;;;;;4977938;28;20100;-66
2023/09/02 01:10:59;;;;;;;31.60;19.95;;;15.10;99.90;;;;;;5002203;28;20046;-67
2023/09/02 01:13:25;;;;;;;28.10;19.83;;;15.10;99.90;;;;;;5010236;28;20041;-67
2023/09/02 01:15:54;;;;;;;32.08;20.67;;;15.10;99.90;;;;;;5003476;28;20045;-67
2023/09/02 01:18:27;;;;;;;29.42;20.08;;;15.10;99.90;;;;;;5010495;28;20052;-66
2023/09/02 01:21:17;;;;;;;26.35;18.90;;;15.10;99.90;;;;;;4995398;28;20034;-67
2023/09/02 01:24:20;;;;;;;28.92;18.95;;;15.10;99.90;;;;;;5003655;28;20230;-65
2023/09/02 01:27:04;;;;;;;28.27;19.27;;;15.10;99.90;;;;;;5012029;28;20080;-65
2023/09/02 01:29:35;;;;;;;25.45;19.08;;;15.10;99.90;;;;;;5005363;28;20073;-65
2023/09/02 01:32:01;;;;;;;28.58;18.77;;;15.20;99.90;;;;;;5011141;28;20072;-65
2023/09/02 01:34:30;;;;;;;28.17;18.98;;;15.20;99.90;;;;;;5011740;28;20050;-65
2023/09/02 01:36:59;;;;;;;26.60;18.23;;;15.20;99.90;;;;;;5011885;28;20071;-65
2023/09/02 01:39:26;;;;;;;27.95;18.60;;;15.20;99.90;;;;;;5007463;28;20126;-67
2023/09/02 01:41:52;;;;;;;26.30;18.45;;;15.20;99.90;;;;;;4993603;28;20034;-66
2023/09/02 01:44:18;;;;;;;28.60;19.75;;;15.30;99.90;;;;;;5011798;28;20447;-66
2023/09/02 01:46:46;;;;;;;24.60;17.27;;;15.30;99.90;;;;;;4996873;28;20038;-65
2023/09/02 01:49:11;;;;;;;29.52;19.00;;;15.30;99.90;;;;;;5010770;28;20116;-66
2023/09/02 01:51:39;;;;;;;33.58;19.90;;;15.30;99.90;;;;;;5011407;28;20128;-67
2023/09/02 01:54:05;;;;;;;30.75;21.15;;;15.30;99.90;;;;;;5002640;28;20046;-67
2023/09/02 01:56:31;;;;;;;30.75;21.23;;;15.30;99.90;;;;;;5009427;28;20034;-65
2023/09/02 01:58:57;;;;;;;32.10;21.35;;;15.30;99.90;;;;;;5011150;28;20658;-65
2023/09/02 02:01:23;;;;;;;28.15;20.38;;;15.30;99.90;;;;;;5008497;28;20397;-66
2023/09/02 02:04:03;;;;;;;28.73;18.92;;;15.30;99.90;;;;;;4999605;28;20500;-66
2023/09/02 02:06:31;;;;;;;32.13;19.80;;;15.30;99.90;;;;;;5009353;28;20081;-66
2023/09/02 02:09:05;;;;;;;31.88;20.48;;;15.30;99.90;;;;;;4993728;28;20050;-67
2023/09/02 02:11:35;;;;;;;31.48;20.85;;;15.30;99.90;;;;;;4997752;28;20053;-64
2023/09/02 02:14:05;;;;;;;30.20;19.58;;;15.30;99.90;;;;;;5004877;28;20512;-66
2023/09/02 02:16:31;;;;;;;28.50;19.98;;;15.30;99.90;;;;;;5010350;28;20072;-66
2023/09/02 02:18:58;;;;;;;29.65;19.08;;;15.30;99.90;;;;;;5004700;28;20042;-67
2023/09/02 02:21:24;;;;;;;31.83;20.75;;;15.30;99.90;;;;;;5006169;28;20034;-65
2023/09/02 02:23:50;;;;;;;28.63;21.27;;;15.30;99.90;;;;;;5010643;28;20034;-67
2023/09/02 02:26:15;;;;;;;30.63;21.60;;;15.30;99.90;;;;;;5010486;28;20049;-67
2023/09/02 02:28:42;;;;;;;31.55;21.15;;;15.40;99.90;;;;;;5003487;28;20577;-66
2023/09/02 02:31:07;;;;;;;32.83;20.80;;;15.40;99.90;;;;;;5009872;28;20117;-66
2023/09/02 02:33:33;;;;;;;31.20;20.67;;;15.40;99.90;;;;;;4992550;28;20185;-67
2023/09/02 02:35:58;;;;;;;29.52;21.15;;;15.40;99.90;;;;;;4999818;28;20427;-67
2023/09/02 02:38:24;;;;;;;34.88;20.98;;;15.40;99.90;;;;;;5011438;28;20037;-65
2023/09/02 02:40:50;;;;;;;33.33;21.40;;;15.40;99.90;;;;;;5014796;28;20037;-66
2023/09/02 02:43:15;;;;;;;32.45;20.98;;;15.50;99.90;;;;;;5006983;28;20429;-67
2023/09/02 02:45:41;;;;;;;32.67;21.42;;;15.40;99.90;;;;;;4998629;28;20128;-67
2023/09/02 02:48:14;;;;;;;33.17;21.42;;;15.50;99.90;;;;;;4996874;28;20046;-65
2023/09/02 02:50:40;;;;;;;28.00;20.08;;;15.50;99.90;;;;;;4997136;28;20042;-67
2023/09/02 02:53:07;;;;;;;30.85;20.52;;;15.50;99.90;;;;;;5005524;28;20022;-66
2023/09/02 02:55:33;;;;;;;30.90;21.08;;;15.50;99.90;;;;;;5005342;28;20440;-65
2023/09/02 02:57:58;;;;;;;31.95;21.90;;;15.50;99.90;;;;;;5013258;28;20045;-67
2023/09/02 03:00:24;;;;;;;31.95;21.73;;;15.50;99.90;;;;;;5010753;28;20042;-66
2023/09/02 03:02:53;;;;;;;25.98;18.02;;;15.60;99.90;;;;;;5006833;28;20065;-67
2023/09/02 03:05:20;;;;;;;32.78;22.50;;;15.60;99.90;;;;;;4996051;28;20045;-67
2023/09/02 03:07:47;;;;;;;33.28;22.38;;;15.60;99.90;;;;;;5013140;28;20065;-68
2023/09/02 03:10:13;;;;;;;30.15;21.95;;;15.60;99.90;;;;;;5008422;28;20037;-65
2023/09/02 03:12:38;;;;;;;26.90;19.90;;;15.60;99.90;;;;;;5012517;28;20034;-67
2023/09/02 03:15:04;;;;;;;34.45;21.48;;;15.50;99.90;;;;;;5007895;28;20076;-66
2023/09/02 03:17:30;;;;;;;35.58;21.92;;;15.60;99.90;;;;;;4993860;28;20420;-67
2023/09/02 03:19:56;;;;;;;34.63;22.50;;;15.60;99.90;;;;;;5006517;28;20034;-67
2023/09/02 03:22:21;;;;;;;31.42;23.20;;;15.60;99.90;;;;;;5012519;28;20446;-65
2023/09/02 03:24:52;;;;;;;36.33;22.70;;;15.60;99.90;;;;;;5008519;28;20489;-65
2023/09/02 03:27:18;;;;;;;31.70;21.10;;;15.60;99.90;;;;;;5000091;28;20070;-66
2023/09/02 03:29:47;;;;;;;33.53;23.00;;;15.60;99.90;;;;;;5013395;28;20041;-65
2023/09/02 03:32:14;;;;;;;31.10;21.65;;;15.60;99.90;;;;;;5014056;28;20492;-66
2023/09/02 03:34:40;;;;;;;32.45;21.50;;;15.60;99.90;;;;;;5009198;28;20399;-68
2023/09/02 03:37:05;;;;;;;36.33;22.13;;;15.60;99.90;;;;;;4990401;28;20501;-66
2023/09/02 03:39:33;;;;;;;33.42;21.27;;;15.60;99.90;;;;;;5011999;28;20044;-67
2023/09/02 03:41:59;;;;;;;34.20;22.35;;;15.60;99.90;;;;;;5003723;28;20176;-67
2023/09/02 03:44:25;;;;;;;29.95;20.80;;;15.60;99.90;;;;;;5011989;28;20046;-68
2023/09/02 03:46:51;;;;;;;30.95;21.45;;;15.60;99.90;;;;;;5012837;28;20038;-65
2023/09/02 03:49:16;;;;;;;36.15;22.70;;;15.50;99.90;;;;;;5012214;28;20044;-67
2023/09/02 03:51:42;;;;;;;32.30;22.25;;;15.50;99.90;;;;;;4989630;28;20037;-67
2023/09/02 03:54:08;;;;;;;32.33;21.65;;;15.50;99.90;;;;;;4994587;28;20034;-66
2023/09/02 03:56:36;;;;;;;33.10;22.40;;;15.50;99.90;;;;;;5012331;28;20052;-67
2023/09/02 03:59:03;;;;;;;39.05;23.52;;;15.50;99.90;;;;;;5002239;28;20409;-66
2023/09/02 04:01:30;;;;;;;32.63;22.02;;;15.50;99.90;;;;;;5000490;28;20048;-68
2023/09/02 04:03:56;;;;;;;34.90;22.98;;;15.50;99.90;;;;;;5012117;28;20089;-66
2023/09/02 04:06:22;;;;;;;33.85;23.10;;;15.40;99.90;;;;;;5012006;28;20089;-67
2023/09/02 04:08:47;;;;;;;34.83;23.17;;;15.50;99.90;;;;;;5012196;28;20038;-67
2023/09/02 04:11:13;;;;;;;32.78;23.02;;;15.50;99.90;;;;;;5000469;28;20042;-67
2023/09/02 04:13:38;;;;;;;34.17;23.17;;;15.50;99.90;;;;;;5008861;28;20038;-66
2023/09/02 04:16:05;;;;;;;36.47;22.27;;;15.40;99.90;;;;;;5005639;28;20120;-65
2023/09/02 04:18:31;;;;;;;32.38;22.77;;;15.40;99.90;;;;;;5005740;28;20381;-65
2023/09/02 04:20:59;;;;;;;33.60;22.83;;;15.40;99.90;;;;;;4994509;28;20057;-65
2023/09/02 04:23:25;;;;;;;33.42;22.50;;;15.40;99.90;;;;;;5011977;28;20045;-65
2023/09/02 04:25:52;;;;;;;40.38;24.40;;;15.50;99.90;;;;;;5006480;28;20042;-65
2023/09/02 04:28:19;;;;;;;33.88;23.10;;;15.50;99.90;;;;;;5010762;28;20056;-66
2023/09/02 04:30:45;;;;;;;35.90;24.95;;;15.40;99.90;;;;;;5011932;28;20042;-66
2023/09/02 04:33:13;;;;;;;36.90;23.92;;;15.40;99.90;;;;;;4988795;28;20125;-66
2023/09/02 04:35:43;;;;;;;35.85;22.88;;;15.40;99.90;;;;;;5011029;28;20293;-65
2023/09/02 04:38:10;;;;;;;35.38;23.40;;;15.40;99.90;;;;;;5011068;28;20532;-65
2023/09/02 04:40:39;;;;;;;34.53;22.90;;;15.40;99.90;;;;;;4995490;28;20536;-67
2023/09/02 04:43:05;;;;;;;38.17;23.90;;;15.40;99.90;;;;;;5005839;28;20044;-65
2023/09/02 04:45:32;;;;;;;37.42;23.60;;;15.40;99.90;;;;;;5000222;28;20042;-65
2023/09/02 04:47:58;;;;;;;33.72;23.33;;;15.40;99.90;;;;;;5006714;28;20045;-66
2023/09/02 04:50:24;;;;;;;37.47;24.55;;;15.50;99.90;;;;;;4994767;28;20577;-66
2023/09/02 04:52:50;;;;;;;39.50;24.70;;;15.50;99.90;;;;;;5009801;28;20046;-66
2023/09/02 04:55:16;;;;;;;39.80;25.65;;;15.50;99.90;;;;;;5010610;28;20109;-66
2023/09/02 04:57:42;;;;;;;42.33;26.20;;;15.50;99.90;;;;;;4989333;28;20121;-66
2023/09/02 05:00:09;;;;;;;43.55;24.95;;;15.40;99.90;;;;;;4998853;28;20053;-65
2023/09/02 05:02:35;;;;;;;39.13;25.17;;;15.40;99.90;;;;;;5010749;28;20113;-67
2023/09/02 05:05:00;;;;;;;37.92;25.45;;;15.40;99.90;;;;;;5008068;28;20132;-67
2023/09/02 05:07:26;;;;;;;39.25;25.25;;;15.50;99.90;;;;;;5002088;28;20084;-67
2023/09/02 05:09:53;;;;;;;36.67;25.40;;;15.50;99.90;;;;;;5009615;28;20034;-67
2023/09/02 05:12:20;;;;;;;38.90;25.90;;;15.50;99.90;;;;;;5003517;28;20042;-67
2023/09/02 05:14:46;;;;;;;41.05;23.90;;;15.50;99.90;;;;;;4993226;28;20508;-65
2023/09/02 05:17:11;;;;;;;41.88;25.20;;;15.50;99.90;;;;;;5006368;28;20054;-65
2023/09/02 05:19:37;;;;;;;38.70;25.13;;;15.50;99.90;;;;;;5009900;28;20450;-66
2023/09/02 05:22:03;;;;;;;45.28;26.25;;;15.50;99.90;;;;;;5001882;28;20038;-66
2023/09/02 05:24:29;;;;;;;41.50;24.38;;;15.50;99.90;;;;;;5002645;28;20026;-65
2023/09/02 05:26:54;;;;;;;38.83;24.88;;;15.50;99.90;;;;;;4993099;28;20042;-65
2023/09/02 05:29:20;;;;;;;39.95;24.80;;;15.50;99.90;;;;;;5006842;28;20397;-65
2023/09/02 05:31:46;;;;;;;39.85;25.17;;;15.50;99.90;;;;;;5007421;28;20029;-66
2023/09/02 05:34:11;;;;;;;40.55;26.27;;;15.50;99.90;;;;;;5010131;28;20403;-66
2023/09/02 05:36:37;;;;;;;40.45;25.83;;;15.50;99.90;;;;;;5011122;28;20104;-65
2023/09/02 05:39:03;;;;;;;39.42;25.58;;;15.50;99.90;;;;;;5004212;28;20034;-65
2023/09/02 05:41:28;;;;;;;42.97;26.08;;;15.50;99.90;;;;;;4991280;28;20041;-65
2023/09/02 05:43:54;;;;;;;43.00;26.10;;;15.50;99.90;;;;;;5010736;28;20049;-65
2023/09/02 05:46:20;;;;;;;42.97;26.33;;;15.50;99.90;;;;;;5010739;28;20041;-66
2023/09/02 05:48:46;;;;;;;45.90;26.67;;;15.60;99.90;;;;;;5000802;28;20485;-65
2023/09/02 05:51:11;;;;;;;42.28;26.83;;;15.60;99.90;;;;;;5010032;28;20038;-65
2023/09/02 05:53:37;;;;;;;39.05;26.25;;;15.60;99.90;;;;;;5010589;28;20554;-65
2023/09/02 05:56:03;;;;;;;43.30;26.65;;;15.70;99.90;;;;;;5006416;28;20033;-66
2023/09/02 05:58:28;;;;;;;41.13;26.92;;;15.60;99.90;;;;;;5006121;28;20038;-65
2023/09/02 06:00:54;;;;;;;47.67;27.63;;;15.70;99.90;;;;;;5000520;28;20086;-65
2023/09/02 06:03:20;;;;;;;43.25;27.48;;;15.70;99.90;;;;;;5012530;28;20069;-65
2023/09/02 06:05:46;;;;;;;41.92;27.58;;;15.70;99.90;;;;;;5012636;28;20042;-66
2023/09/02 06:08:11;;;;;;;44.22;27.45;;;15.70;99.90;;;;;;5010410;28;20409;-65
2023/09/02 06:10:37;;;;;;;48.28;27.88;;;15.80;99.90;;;;;;5000266;28;20073;-65
2023/09/02 06:13:03;;;;;;;44.60;27.23;;;15.70;99.90;;;;;;4999083;28;20034;-65
2023/09/02 06:15:28;;;;;;;47.85;28.55;;;15.80;99.90;;;;;;5005540;28;20050;-65
2023/09/02 06:17:54;;;;;;;44.75;28.42;;;15.80;99.90;;;;;;5013726;28;20046;-67
2023/09/02 06:20:22;;;;;;;44.95;28.02;;;15.80;99.90;;;;;;4987781;28;20050;-67
2023/09/02 06:22:47;;;;;;;46.85;28.67;;;15.80;99.90;;;;;;5001204;28;20117;-66
2023/09/02 06:25:13;;;;;;;43.72;27.63;;;15.90;99.90;;;;;;5014077;28;20113;-66
2023/09/02 06:27:38;;;;;;;48.50;29.05;;;15.90;99.90;;;;;;5013650;28;20496;-65
2023/09/02 06:30:05;;;;;;;44.17;27.77;;;15.90;99.90;;;;;;5001080;28;20629;-67
2023/09/02 06:32:30;;;;;;;50.33;29.20;;;16.00;99.90;;;;;;5009004;28;20580;-65
2023/09/02 06:34:57;;;;;;;48.75;28.73;;;16.00;99.90;;;;;;5011321;28;20128;-65
2023/09/02 06:37:23;;;;;;;43.92;27.70;;;16.00;99.90;;;;;;5001168;28;20137;-65
2023/09/02 06:39:55;;;;;;;54.38;28.08;;;16.00;99.90;;;;;;5010475;28;20128;-65
2023/09/02 06:42:22;;;;;;;42.35;26.88;;;16.00;99.90;;;;;;5009995;28;20563;-65
2023/09/02 06:44:52;;;;;;;43.53;27.08;;;16.00;99.90;;;;;;5008577;28;20046;-66
2023/09/02 06:47:18;;;;;;;43.35;27.70;;;16.10;99.90;;;;;;5006757;28;20129;-66
2023/09/02 06:49:43;;;;;;;45.38;27.92;;;16.00;99.90;;;;;;4992837;28;20041;-67
2023/09/02 06:52:09;;;;;;;45.83;27.60;;;16.00;99.90;;;;;;5010596;28;20185;-65
2023/09/02 06:54:34;;;;;;;45.20;27.73;;;16.00;99.90;;;;;;5007339;28;20042;-65
2023/09/02 06:57:00;;;;;;;39.65;26.05;;;16.10;99.90;;;;;;5007914;28;20091;-66
2023/09/02 06:59:26;;;;;;;45.13;26.80;;;16.10;99.90;;;;;;5009786;28;20046;-67
2023/09/02 07:01:52;;;;;;;47.35;27.02;;;16.00;99.90;;;;;;5004757;28;20034;-66
2023/09/02 07:04:18;;;;;;;44.70;27.60;;;16.00;99.90;;;;;;4999005;28;20045;-69
2023/09/02 07:06:43;;;;;;;45.33;27.60;;;16.00;99.90;;;;;;5009486;28;20069;-67
2023/09/02 07:09:10;;;;;;;43.20;27.17;;;16.00;99.90;;;;;;5010238;28;20050;-68
2023/09/02 07:11:36;;;;;;;43.72;26.88;;;16.00;99.90;;;;;;5006007;28;20404;-66
2023/09/02 07:14:02;;;;;;;46.15;27.88;;;16.10;99.90;;;;;;4998824;28;20527;-66
2023/09/02 07:16:28;;;;;;;43.60;27.80;;;16.10;99.90;;;;;;5002552;28;20041;-65
2023/09/02 07:18:54;;;;;;;51.45;28.80;;;16.10;99.90;;;;;;5000747;28;20040;-66
2023/09/02 07:21:22;;;;;;;42.90;28.42;;;16.10;99.90;;;;;;5005467;28;20050;-66
2023/09/02 07:23:49;;;;;;;44.88;27.48;;;16.10;99.90;;;;;;5009499;28;20065;-66
2023/09/02 07:26:15;;;;;;;46.72;27.55;;;16.20;99.90;;;;;;5009859;28;20076;-65
2023/09/02 07:28:42;;;;;;;49.97;27.02;;;16.20;99.90;;;;;;4996208;28;20042;-66
2023/09/02 07:31:08;;;;;;;47.70;27.48;;;16.20;99.90;;;;;;5006124;28;20038;-66
2023/09/02 07:33:34;;;;;;;42.88;26.83;;;16.20;99.90;;;;;;5003013;28;20053;-66
2023/09/02 07:36:06;;;;;;;46.05;26.15;;;16.30;99.90;;;;;;5002310;28;20042;-67
2023/09/02 07:38:32;;;;;;;41.72;26.02;;;16.20;99.90;;;;;;5004988;28;20050;-66
2023/09/02 07:40:57;;;;;;;41.83;26.38;;;16.30;99.90;;;;;;5010267;28;20044;-66
2023/09/02 07:43:23;;;;;;;41.55;25.77;;;16.30;99.90;;;;;;5009865;28;20045;-67
2023/09/02 07:45:49;;;;;;;42.53;26.13;;;16.30;99.90;;;;;;5004931;28;20038;-66
2023/09/02 07:48:14;;;;;;;42.42;25.95;;;16.40;99.90;;;;;;5007897;28;20038;-66
2023/09/02 07:50:42;;;;;;;45.72;27.10;;;16.50;99.90;;;;;;5010160;28;20046;-66
2023/09/02 07:53:07;;;;;;;41.40;25.15;;;16.50;99.90;;;;;;4996745;28;20042;-67
2023/09/02 07:55:33;;;;;;;44.17;26.42;;;16.60;99.90;;;;;;5007983;28;20097;-66
2023/09/02 07:58:00;;;;;;;40.70;25.52;;;16.70;99.90;;;;;;5009601;28;20038;-66
2023/09/02 08:00:26;;;;;;;45.78;26.48;;;16.70;99.90;;;;;;5003518;28;20061;-66
2023/09/02 08:02:52;;;;;;;42.55;25.95;;;16.80;99.90;;;;;;5009027;28;20496;-66
2023/09/02 08:05:17;;;;;;;44.70;26.63;;;16.80;99.90;;;;;;5009882;28;20054;-66
2023/09/02 08:07:44;;;;;;;44.47;26.00;;;16.80;99.90;;;;;;5007443;28;20766;-67
2023/09/02 08:10:10;;;;;;;42.13;25.52;;;16.80;99.90;;;;;;5001343;28;20050;-66
2023/09/02 08:12:36;;;;;;;40.13;25.13;;;16.90;99.90;;;;;;5008169;28;20147;-66
2023/09/02 08:15:01;;;;;;;41.05;25.67;;;17.00;99.90;;;;;;5009950;28;20690;-66
2023/09/02 08:17:27;;;;;;;41.47;25.70;;;17.10;99.90;;;;;;4996034;28;20057;-66
2023/09/02 08:19:53;;;;;;;43.67;25.23;;;17.10;99.90;;;;;;5005196;28;20068;-66
2023/09/02 08:22:18;;;;;;;40.67;24.65;;;17.20;99.90;;;;;;5008752;28;20044;-67
2023/09/02 08:24:44;;;;;;;37.15;23.92;;;17.20;99.90;;;;;;5008722;28;20444;-70
2023/09/02 08:27:09;;;;;;;35.92;22.48;;;17.20;99.90;;;;;;4999821;28;20049;-66
2023/09/02 08:29:35;;;;;;;39.35;24.30;;;17.20;99.90;;;;;;5007027;28;20685;-66
2023/09/02 08:32:00;;;;;;;38.38;23.38;;;17.20;99.90;;;;;;5008782;28;20042;-67
2023/09/02 08:34:26;;;;;;;38.92;23.85;;;17.20;99.90;;;;;;4994207;28;20041;-67
2023/09/02 08:36:51;;;;;;;40.33;23.65;;;17.20;99.90;;;;;;5005741;28;20387;-67
2023/09/02 08:39:17;;;;;;;33.78;22.58;;;17.20;99.90;;;;;;5012314;28;20556;-67
2023/09/02 08:41:44;;;;;;;38.97;23.77;;;17.20;99.90;;;;;;4999498;28;20152;-65
2023/09/02 08:44:14;;;;;;;36.50;23.23;;;17.20;99.90;;;;;;4995559;28;20045;-66
2023/09/02 08:46:41;;;;;;;38.17;22.92;;;17.20;99.90;;;;;;5006269;28;20057;-66
2023/09/02 08:49:09;;;;;;;35.45;22.63;;;17.20;99.90;;;;;;4998380;28;20471;-65
2023/09/02 08:51:35;;;;;;;33.90;22.85;;;17.20;99.90;;;;;;5004195;28;20081;-65
2023/09/02 08:54:01;;;;;;;35.38;23.63;;;17.30;99.90;;;;;;5012043;28;20037;-67
2023/09/02 08:56:29;;;;;;;40.83;23.38;;;17.40;99.90;;;;;;5012076;28;20046;-66
2023/09/02 08:58:55;;;;;;;39.70;22.27;;;17.60;99.90;;;;;;4999805;28;20058;-67
2023/09/02 09:01:21;;;;;;;36.15;22.30;;;17.80;99.90;;;;;;5000435;28;20061;-67
2023/09/02 09:03:49;;;;;;;35.88;22.75;;;17.90;99.90;;;;;;5012332;28;20067;-66
2023/09/02 09:06:17;;;;;;;37.17;22.65;;;18.00;99.90;;;;;;5012276;28;20056;-64
2023/09/02 09:08:45;;;;;;;36.67;21.65;;;18.10;99.90;;;;;;5004587;28;20483;-65
2023/09/02 09:11:12;;;;;;;32.33;21.30;;;18.00;99.90;;;;;;5005674;28;20136;-67
2023/09/02 09:13:44;;;;;;;32.72;21.02;;;18.00;99.90;;;;;;5012108;28;20041;-66
2023/09/02 09:16:38;;;;;;;32.20;21.05;;;17.90;99.90;;;;;;4999360;28;20042;-65
2023/09/02 09:19:03;;;;;;;32.70;20.88;;;17.90;99.90;;;;;;5006552;28;20104;-64
2023/09/02 09:21:29;;;;;;;32.53;20.90;;;17.80;99.90;;;;;;5011581;28;20879;-64
2023/09/02 09:23:55;;;;;;;33.33;21.38;;;17.90;99.90;;;;;;5008436;28;20050;-66
2023/09/02 09:26:21;;;;;;;38.92;22.23;;;18.00;99.90;;;;;;5010746;28;20505;-66
2023/09/02 09:28:56;;;;;;;31.42;20.95;;;18.00;99.90;;;;;;5011109;28;20042;-67
2023/09/02 09:31:22;;;;;;;35.28;22.17;;;18.20;99.90;;;;;;5011987;28;20041;-67
2023/09/02 09:33:51;;;;;;;33.70;21.27;;;18.30;99.90;;;;;;4994925;28;20096;-64
2023/09/02 09:36:17;;;;;;;35.40;21.00;;;18.40;99.90;;;;;;4979166;28;20614;-66
2023/09/02 09:38:42;;;;;;;34.90;21.58;;;18.50;99.90;;;;;;4985267;28;20041;-64
2023/09/02 09:41:09;;;;;;;33.30;20.85;;;18.50;99.90;;;;;;4993937;28;20092;-64
2023/09/02 09:43:34;;;;;;;34.38;21.45;;;18.70;99.90;;;;;;5001927;28;20033;-64
2023/09/02 09:46:00;;;;;;;29.83;20.85;;;18.70;99.90;;;;;;4993404;28;20107;-65
2023/09/02 09:48:26;;;;;;;30.55;20.13;;;18.80;99.90;;;;;;5008081;28;20045;-65
2023/09/02 09:50:51;;;;;;;33.08;20.88;;;18.80;99.90;;;;;;5001472;28;20034;-65
2023/09/02 09:53:17;;;;;;;33.13;21.63;;;18.80;99.90;;;;;;5008145;28;20113;-66
2023/09/02 09:55:43;;;;;;;31.67;21.30;;;18.90;99.90;;;;;;4992251;28;20049;-68
2023/09/02 09:58:09;;;;;;;29.30;20.55;;;18.80;99.90;;;;;;4989391;28;20034;-67
2023/09/02 10:00:35;;;;;;;31.20;21.00;;;18.90;99.90;;;;;;5002217;28;20080;-67
2023/09/02 10:03:01;;;;;;;29.50;19.83;;;18.90;99.90;;;;;;5010792;28;20153;-64
2023/09/02 10:05:29;;;;;;;32.25;20.85;;;18.90;99.90;;;;;;4989827;28;20049;-67
2023/09/02 10:08:04;;;;;;;28.23;19.50;;;18.80;99.90;;;;;;4984330;28;20037;-67
2023/09/02 10:10:37;;;;;;;28.08;19.58;;;18.90;99.90;;;;;;5011266;28;20073;-67
2023/09/02 10:13:03;;;;;;;29.42;19.85;;;19.10;99.90;;;;;;5011557;28;20519;-68
2023/09/02 10:15:30;;;;;;;29.17;19.55;;;19.30;99.90;;;;;;4998379;28;20042;-64
2023/09/02 10:18:04;;;;;;;25.70;18.05;;;19.40;99.90;;;;;;5004329;28;20446;-65
2023/09/02 10:20:35;;;;;;;29.15;20.42;;;19.60;99.90;;;;;;5011045;28;20038;-65
2023/09/02 10:23:09;;;;;;;;;;;19.60;99.90;;;;;;5005292;28;20096;-65
2023/09/02 10:25:59;;;;;;;22.33;16.98;;;19.70;99.90;;;;;;5004531;28;19971;-64
2023/09/02 10:28:32;;;;;;;27.20;18.83;;;19.80;99.90;;;;;;5011208;28;20046;-65
2023/09/02 10:31:02;;;;;;;24.38;17.67;;;20.00;99.90;;;;;;5002997;28;20065;-67
2023/09/02 10:33:38;;;;;;;24.50;16.98;;;20.10;99.90;;;;;;5007112;28;20038;-64
2023/09/02 10:36:06;;;;;;;24.38;17.73;;;20.20;99.90;;;;;;4993677;28;20120;-65
2023/09/02 10:38:36;;;;;;;23.15;16.75;;;20.30;99.90;;;;;;4998764;28;20046;-65
2023/09/02 10:41:11;;;;;;;22.05;17.40;;;20.50;99.90;;;;;;5004989;28;20038;-69
2023/09/02 10:43:39;;;;;;;22.10;15.88;;;20.70;99.90;;;;;;4993416;28;20061;-68
2023/09/02 10:46:06;;;;;;;23.55;17.33;;;20.70;99.90;;;;;;5011400;28;20049;-64
2023/09/02 10:48:33;;;;;;;23.52;17.80;;;20.70;99.90;;;;;;5005938;28;20043;-65
2023/09/02 10:51:00;;;;;;;23.83;17.33;;;20.70;99.90;;;;;;5005832;28;20065;-67
2023/09/02 10:53:47;;;;;;;25.17;17.48;;;20.70;99.90;;;;;;5005008;28;20048;-67
2023/09/02 10:56:23;;;;;;;26.55;16.27;;;20.80;99.90;;;;;;4993661;28;20077;-67
2023/09/02 10:58:49;;;;;;;23.85;17.05;;;20.90;99.90;;;;;;4988711;28;20034;-68
2023/09/02 11:01:15;;;;;;;21.55;15.45;;;20.90;99.90;;;;;;5013700;28;20160;-69
2023/09/02 11:03:48;;;;;;;20.10;15.38;;;21.00;99.90;;;;;;5014377;28;20190;-68
2023/09/02 11:06:17;;;;;;;19.88;15.55;;;21.10;99.90;;;;;;5004318;28;20038;-66
2023/09/02 11:08:45;;;;;;;24.27;15.35;;;21.00;99.90;;;;;;5013733;28;20029;-68
2023/09/02 11:11:11;;;;;;;26.33;15.85;;;21.00;99.90;;;;;;5009315;28;20527;-69
2023/09/02 11:14:08;;;;;;;23.20;16.10;;;20.90;99.90;;;;;;4981640;28;20057;-67
2023/09/02 11:16:34;;;;;;;24.25;17.45;;;20.90;99.90;;;;;;5012634;28;20557;-67
2023/09/02 11:19:00;;;;;;;24.90;17.63;;;20.80;99.90;;;;;;5013819;28;20077;-67
2023/09/02 11:21:42;;;;;;;26.77;17.25;;;20.90;99.90;;;;;;5003914;28;20074;-66
2023/09/02 11:24:17;;;;;;;21.95;16.10;;;20.90;99.90;;;;;;4996978;28;20117;-66
2023/09/02 11:26:53;;;;;;;23.98;16.13;;;20.90;99.90;;;;;;5013732;28;20044;-67
2023/09/02 11:29:26;;;;;;;22.67;16.98;;;20.80;99.90;;;;;;5007503;28;20049;-71
2023/09/02 11:31:56;;;;;;;24.55;16.52;;;20.90;99.90;;;;;;5013270;28;20047;-67
2023/09/02 11:34:23;;;;;;;22.25;16.13;;;21.00;99.90;;;;;;5013720;28;20046;-64
2023/09/02 11:36:50;;;;;;;22.55;16.27;;;20.90;99.90;;;;;;5013529;28;20034;-65
2023/09/02 11:39:16;;;;;;;22.30;16.17;;;21.00;99.90;;;;;;5001626;28;20076;-65
2023/09/02 11:41:41;;;;;;;25.75;16.00;;;21.10;99.90;;;;;;5007951;28;20057;-65
2023/09/02 11:44:11;;;;;;;24.30;16.85;;;21.30;99.90;;;;;;5013741;28;20092;-68
2023/09/02 11:46:39;;;;;;;24.50;16.42;;;21.50;99.90;;;;;;5009189;28;20408;-65
2023/09/02 11:49:23;;;;;;;25.08;17.13;;;21.60;99.90;;;;;;5009853;28;20076;-65
2023/09/02 11:51:49;;;;;;;23.60;17.35;;;21.80;99.90;;;;;;5010938;28;20105;-66
2023/09/02 11:54:16;;;;;;;22.25;15.60;;;22.20;99.90;;;;;;5006300;28;20576;-67
2023/09/02 11:56:41;;;;;;;18.88;14.95;;;22.20;99.90;;;;;;4998338;28;20440;-64
2023/09/02 11:59:23;;;;;;;26.67;15.00;;;21.90;99.90;;;;;;5007450;28;20088;-67
2023/09/02 12:02:09;;;;;;;19.48;14.40;;;21.80;99.90;;;;;;4991887;28;20038;-67
2023/09/02 12:04:39;;;;;;;18.38;14.50;;;21.90;99.90;;;;;;5004723;28;20092;-67
2023/09/02 12:07:06;;;;;;;22.27;14.45;;;21.80;99.90;;;;;;5012811;28;20038;-67
2023/09/02 12:09:32;;;;;;;21.02;13.75;;;21.80;99.90;;;;;;5007269;28;20058;-66
2023/09/02 12:11:58;;;;;;;23.63;14.77;;;21.80;99.90;;;;;;4990384;28;20406;-67
2023/09/02 12:14:26;;;;;;;22.42;14.88;;;22.00;99.90;;;;;;5012515;28;20045;-66
2023/09/02 12:16:52;;;;;;;19.85;14.55;;;22.20;99.90;;;;;;5013027;28;20037;-66
2023/09/02 12:19:18;;;;;;;20.20;15.32;;;22.50;99.90;;;;;;5009140;28;20493;-67
2023/09/02 12:21:44;;;;;;;17.67;13.48;;;22.80;99.90;;;;;;5012386;28;20034;-67
2023/09/02 12:24:10;;;;;;;20.23;14.30;;;22.80;99.90;;;;;;5002058;28;20042;-67
2023/09/02 12:26:49;;;;;;;25.55;13.45;;;22.50;99.90;;;;;;5004799;28;20049;-64
2023/09/02 12:29:19;;;;;;;18.98;13.75;;;22.30;99.90;;;;;;4994388;28;20041;-66